createdAt,value
2018-09-02T00:00:40.465Z,12.80
2018-09-02T00:03:07.979Z,13.55
2018-09-02T00:05:35.391Z,14.18
2018-09-02T00:08:03.161Z,14.23
2018-09-02T00:10:31.100Z,14.23
2018-09-02T00:12:58.368Z,14.23
2018-09-02T00:15:25.923Z,13.80
2018-09-02T00:17:53.245Z,13.62
2018-09-02T00:20:21.022Z,13.90
2018-09-02T00:22:49.138Z,14.60
2018-09-02T00:25:17.593Z,14.68
2018-09-02T00:27:45.544Z,14.78
2018-09-02T00:30:14.409Z,15.00
2018-09-02T00:32:42.760Z,14.50
2018-09-02T00:35:10.755Z,14.50
2018-09-02T00:37:39.149Z,14.50
2018-09-02T00:40:06.485Z,13.85
2018-09-02T00:42:33.791Z,14.60
2018-09-02T00:45:01.242Z,14.70
2018-09-02T00:47:28.493Z,13.73
2018-09-02T00:49:55.779Z,14.70
2018-09-02T00:52:23.523Z,14.55
2018-09-02T00:54:51.280Z,13.90
2018-09-02T00:57:18.983Z,14.13
2018-09-02T00:59:47.335Z,14.40
2018-09-02T01:02:15.527Z,14.20
2018-09-02T01:04:43.874Z,14.53
2018-09-02T01:07:11.371Z,14.70
2018-09-02T01:09:40.124Z,14.25
2018-09-02T01:12:08.035Z,15.00
2018-09-02T01:14:36.311Z,14.60
2018-09-02T01:17:04.014Z,14.90
2018-09-02T01:19:31.272Z,16.00
2018-09-02T01:21:58.520Z,15.10
2018-09-02T01:24:25.836Z,15.18
2018-09-02T01:26:53.124Z,14.98
2018-09-02T01:29:20.577Z,15.20
2018-09-02T01:31:49.010Z,14.25
2018-09-02T01:34:16.626Z,15.80
2018-09-02T01:36:44.739Z,15.40
2018-09-02T01:39:13.038Z,14.77
2018-09-02T01:41:41.053Z,15.50
2018-09-02T01:44:08.550Z,15.48
2018-09-02T01:46:36.191Z,14.85
2018-09-02T01:49:03.655Z,13.93
2018-09-02T01:51:30.867Z,13.95
2018-09-02T01:53:58.397Z,14.38
2018-09-02T01:56:25.652Z,14.20
2018-09-02T01:58:52.992Z,13.63
2018-09-02T02:01:20.707Z,13.55
2018-09-02T02:03:48.220Z,14.68
2018-09-02T02:06:15.957Z,14.35
2018-09-02T02:08:44.255Z,13.72
2018-09-02T02:11:12.606Z,13.98
2018-09-02T02:13:41.139Z,13.72
2018-09-02T02:16:08.849Z,13.40
2018-09-02T02:18:36.400Z,13.43
2018-09-02T02:21:04.023Z,13.40
2018-09-02T02:23:31.627Z,13.25
2018-09-02T02:25:58.999Z,13.80
2018-09-02T02:28:26.228Z,13.43
2018-09-02T02:30:53.644Z,12.40
2018-09-02T02:33:21.194Z,12.63
2018-09-02T02:35:48.655Z,13.70
2018-09-02T02:38:16.334Z,12.98
2018-09-02T02:40:44.459Z,13.30
2018-09-02T02:43:11.798Z,13.70
2018-09-02T02:45:39.215Z,13.90
2018-09-02T02:48:06.956Z,13.20
2018-09-02T02:50:34.441Z,12.85
2018-09-02T02:53:03.827Z,13.13
2018-09-02T02:55:31.986Z,13.60
2018-09-02T02:57:59.604Z,13.13
2018-09-02T03:00:26.808Z,13.50
2018-09-02T03:02:54.056Z,13.00
2018-09-02T03:05:22.229Z,12.98
2018-09-02T03:07:49.945Z,12.65
2018-09-02T03:10:17.656Z,13.08
2018-09-02T03:12:45.367Z,12.88
2018-09-02T03:15:13.650Z,14.65
2018-09-02T03:17:42.056Z,12.20
2018-09-02T03:20:09.579Z,12.68
2018-09-02T03:22:37.254Z,12.70
2018-09-02T03:25:04.584Z,12.58
2018-09-02T03:27:31.974Z,12.70
2018-09-02T03:29:59.225Z,12.37
2018-09-02T03:32:26.429Z,12.37
2018-09-02T03:34:53.724Z,13.10
2018-09-02T03:37:21.127Z,12.80
2018-09-02T03:39:48.650Z,12.80
2018-09-02T03:42:16.317Z,13.40
2018-09-02T03:44:44.220Z,13.90
2018-09-02T03:47:12.156Z,13.70
2018-09-02T03:49:40.075Z,13.60
2018-09-02T03:52:07.766Z,13.10
2018-09-02T03:54:35.399Z,13.20
2018-09-02T03:57:03.343Z,13.30
2018-09-02T03:59:31.783Z,13.78
2018-09-02T04:01:59.177Z,14.10
2018-09-02T04:04:26.798Z,13.60
2018-09-02T04:06:54.401Z,13.60
2018-09-02T04:09:21.751Z,13.70
2018-09-02T04:11:49.258Z,13.15
2018-09-02T04:14:16.790Z,14.13
2018-09-02T04:16:44.297Z,13.88
2018-09-02T04:19:11.969Z,12.95
2018-09-02T04:21:39.329Z,13.60
2018-09-02T04:24:06.674Z,13.53
2018-09-02T04:26:33.978Z,12.90
2018-09-02T04:29:01.371Z,13.60
2018-09-02T04:31:28.703Z,13.37
2018-09-02T04:33:56.047Z,13.70
2018-09-02T04:36:23.534Z,14.33
2018-09-02T04:38:51.353Z,13.22
2018-09-02T04:41:18.822Z,13.32
2018-09-02T04:43:46.596Z,14.18
2018-09-02T04:46:14.175Z,12.63
2018-09-02T04:48:42.118Z,11.97
2018-09-02T04:51:09.733Z,13.43
2018-09-02T04:53:37.344Z,12.63
2018-09-02T04:56:04.717Z,12.23
2018-09-02T04:58:33.041Z,12.97
2018-09-02T05:01:00.309Z,12.60
2018-09-02T05:03:27.772Z,13.67
2018-09-02T05:05:55.049Z,12.67
2018-09-02T05:08:22.248Z,11.63
2018-09-02T05:10:49.836Z,13.73
2018-09-02T05:13:17.361Z,13.83
2018-09-02T05:15:44.988Z,13.30
2018-09-02T05:18:12.779Z,13.10
2018-09-02T05:20:40.507Z,14.50
2018-09-02T05:23:08.223Z,14.03
2018-09-02T05:25:35.728Z,14.27
2018-09-02T05:28:03.300Z,13.83
2018-09-02T05:30:30.578Z,15.77
2018-09-02T05:32:57.807Z,13.75
2018-09-02T05:35:31.777Z,14.35
2018-09-02T05:37:59.060Z,15.23
2018-09-02T05:40:26.550Z,15.32
2018-09-02T05:42:53.775Z,14.90
2018-09-02T05:45:21.068Z,14.40
2018-09-02T05:47:48.889Z,15.03
2018-09-02T05:50:16.332Z,15.20
2018-09-02T05:52:43.949Z,14.30
2018-09-02T05:55:11.778Z,14.83
2018-09-02T05:57:39.352Z,15.00
2018-09-02T06:00:06.747Z,15.33
2018-09-02T06:02:34.461Z,14.37
2018-09-02T06:05:01.821Z,14.70
2018-09-02T06:07:29.059Z,14.45
2018-09-02T06:09:56.646Z,15.63
2018-09-02T06:12:24.019Z,15.40
2018-09-02T06:14:51.270Z,15.78
2018-09-02T06:17:19.017Z,14.40
2018-09-02T06:19:46.762Z,15.38
2018-09-02T06:22:14.566Z,15.13
2018-09-02T06:24:42.802Z,15.80
2018-09-02T06:27:10.403Z,14.90
2018-09-02T06:29:38.106Z,14.03
2018-09-02T06:32:05.704Z,13.10
2018-09-02T06:34:33.023Z,14.10
2018-09-02T06:37:00.280Z,14.07
2018-09-02T06:39:27.599Z,14.60
2018-09-02T06:41:54.739Z,14.50
2018-09-02T06:44:21.987Z,12.93
2018-09-02T06:46:49.437Z,14.90
2018-09-02T06:49:16.924Z,13.40
2018-09-02T06:51:44.482Z,13.53
2018-09-02T06:54:12.186Z,12.13
2018-09-02T06:56:39.530Z,12.57
2018-09-02T06:59:07.123Z,12.97
2018-09-02T07:01:34.820Z,13.13
2018-09-02T07:04:03.577Z,13.30
2018-09-02T07:06:31.270Z,12.78
2018-09-02T07:08:58.454Z,12.43
2018-09-02T07:11:25.801Z,11.80
2018-09-02T07:13:53.203Z,12.30
2018-09-02T07:16:20.789Z,12.30
2018-09-02T07:18:48.340Z,11.63
2018-09-02T07:21:16.002Z,12.00
2018-09-02T07:23:44.318Z,10.83
2018-09-02T07:38:27.782Z,9.90
2018-09-02T07:40:55.003Z,10.60
2018-09-02T07:43:22.356Z,10.50
2018-09-02T07:45:49.847Z,10.50
2018-09-02T07:48:17.436Z,9.53
2018-09-02T07:50:45.450Z,9.33
2018-09-02T07:53:13.248Z,9.40
2018-09-02T07:55:41.170Z,8.78
2018-09-02T07:58:08.705Z,8.70
2018-09-02T08:00:35.982Z,9.30
2018-09-02T08:03:03.271Z,8.98
2018-09-02T08:05:30.552Z,9.90
2018-09-02T08:07:57.875Z,8.60
2018-09-02T08:10:25.515Z,8.80
2018-09-02T08:12:53.036Z,7.50
2018-09-02T08:15:20.155Z,8.00
2018-09-02T08:17:47.705Z,7.37
2018-09-02T08:20:15.502Z,7.53
2018-09-02T08:22:43.637Z,6.70
2018-09-02T08:25:13.039Z,6.80
2018-09-02T08:27:41.877Z,7.05
2018-09-02T08:30:09.555Z,6.58
2018-09-02T08:32:37.340Z,6.47
2018-09-02T08:35:05.490Z,6.80
2018-09-02T08:37:32.731Z,6.45
2018-09-02T08:39:59.986Z,5.87
2018-09-02T08:42:27.186Z,6.00
2018-09-02T08:44:54.599Z,6.60
2018-09-02T08:47:22.090Z,6.75
2018-09-02T08:49:49.805Z,6.42
2018-09-02T08:52:17.683Z,6.20
2018-09-02T08:54:45.697Z,5.75
2018-09-02T08:57:13.799Z,5.67
2018-09-02T08:59:42.104Z,6.30
2018-09-02T09:02:10.480Z,5.42
2018-09-02T09:04:38.189Z,5.00
2018-09-02T09:07:06.081Z,5.20
2018-09-02T09:09:33.323Z,4.70
2018-09-02T09:12:00.801Z,5.60
2018-09-02T09:14:28.055Z,4.75
2018-09-02T09:16:55.385Z,4.60
2018-09-02T09:19:23.092Z,4.90
2018-09-02T09:21:51.655Z,4.70
2018-09-02T09:24:19.590Z,4.10
2018-09-02T09:26:47.364Z,4.20
2018-09-02T09:29:15.131Z,4.40
2018-09-02T09:31:43.336Z,4.58
2018-09-02T09:34:11.318Z,4.53
2018-09-02T09:36:38.982Z,6.20
2018-09-02T09:39:08.335Z,4.72
2018-09-02T09:41:36.515Z,4.20
2018-09-02T09:44:04.393Z,4.33
2018-09-02T09:46:32.186Z,4.10
2018-09-02T09:48:59.532Z,4.30
2018-09-02T09:51:26.833Z,4.20
2018-09-02T09:53:54.120Z,4.50
2018-09-02T09:56:21.467Z,4.50
2018-09-02T09:58:49.160Z,4.05
2018-09-02T10:01:16.749Z,3.90
2018-09-02T10:03:44.637Z,4.00
2018-09-02T10:06:12.547Z,3.70
2018-09-02T10:08:40.408Z,4.00
2018-09-02T10:11:08.056Z,4.00
2018-09-02T10:13:35.433Z,4.70
2018-09-02T10:16:03.054Z,4.40
2018-09-02T10:18:30.938Z,4.40
2018-09-02T10:20:58.187Z,4.42
2018-09-02T10:23:25.492Z,4.40
2018-09-02T10:25:52.932Z,4.45
2018-09-02T10:28:20.761Z,3.50
2018-09-02T10:30:48.721Z,4.22
2018-09-02T10:33:16.366Z,4.10
2018-09-02T10:35:44.176Z,4.30
2018-09-02T10:38:13.662Z,4.20
2018-09-02T10:40:42.039Z,4.20
2018-09-02T10:43:09.920Z,4.40
2018-09-02T10:45:37.323Z,4.08
2018-09-02T10:48:05.065Z,4.10
2018-09-02T10:50:32.367Z,4.05
2018-09-02T10:52:59.588Z,4.10
2018-09-02T10:55:26.916Z,4.35
2018-09-02T10:57:54.169Z,4.00
2018-09-02T11:00:21.686Z,3.77
2018-09-02T11:02:49.230Z,4.22
2018-09-02T11:05:17.072Z,4.00
2018-09-02T11:07:45.107Z,3.43
2018-09-02T11:10:12.970Z,4.40
2018-09-02T11:12:40.591Z,3.70
2018-09-02T11:15:09.568Z,4.03
2018-09-02T11:17:36.963Z,4.00
2018-09-02T11:20:04.215Z,3.92
2018-09-02T11:22:31.451Z,3.80
2018-09-02T11:24:58.703Z,3.77
2018-09-02T11:27:26.340Z,3.40
2018-09-02T11:29:53.566Z,3.27
2018-09-02T11:32:20.923Z,3.20
2018-09-02T11:34:48.578Z,3.30
2018-09-02T11:37:16.237Z,3.60
2018-09-02T11:39:44.393Z,3.37
2018-09-02T11:42:11.784Z,3.20
2018-09-02T11:44:39.007Z,3.10
2018-09-02T11:47:06.235Z,3.10
2018-09-02T11:49:33.688Z,3.00
2018-09-02T11:52:00.925Z,2.77
2018-09-02T11:54:28.119Z,2.87
2018-09-02T11:56:55.373Z,2.80
2018-09-02T11:59:23.272Z,3.20
2018-09-02T12:01:51.056Z,3.10
2018-09-02T12:04:18.772Z,2.95
2018-09-02T12:06:46.437Z,3.10
2018-09-02T12:09:14.390Z,3.00
2018-09-02T12:11:42.440Z,3.25
2018-09-02T12:14:10.741Z,2.80
2018-09-02T12:16:38.267Z,3.00
2018-09-02T12:19:05.551Z,3.10
2018-09-02T12:21:32.855Z,3.00
2018-09-02T12:24:00.095Z,3.30
2018-09-02T12:26:27.415Z,3.10
2018-09-02T12:28:54.780Z,3.50
2018-09-02T12:31:22.810Z,3.30
2018-09-02T12:33:50.299Z,3.43
2018-09-02T12:36:18.024Z,3.30
2018-09-02T12:38:45.933Z,3.77
2018-09-02T12:48:34.732Z,3.40
2018-09-02T12:51:02.048Z,3.90
2018-09-02T12:53:29.410Z,4.10
2018-09-02T13:15:37.150Z,5.93
2018-09-02T13:18:04.912Z,4.20
2018-09-02T13:20:33.124Z,4.20
2018-09-02T13:23:00.370Z,4.17
2018-09-02T13:25:27.656Z,3.40
2018-09-02T13:27:54.944Z,3.30
2018-09-02T13:30:22.296Z,3.05
2018-09-02T13:32:49.978Z,3.10
2018-09-02T13:35:17.644Z,3.20
2018-09-02T13:37:45.332Z,2.70
2018-09-02T13:40:13.782Z,2.72
2018-09-02T13:42:41.401Z,2.80
2018-09-02T13:45:09.087Z,3.10
2018-09-02T13:47:36.331Z,2.90
2018-09-02T14:07:12.744Z,3.00
2018-09-02T14:09:40.372Z,2.92
2018-09-02T14:12:07.855Z,3.00
2018-09-02T14:14:35.137Z,2.67
2018-09-02T14:17:02.704Z,3.87
2018-09-02T14:19:29.925Z,3.47
2018-09-02T14:24:24.207Z,2.70
2018-09-02T14:26:51.854Z,2.40
2018-09-02T14:29:19.451Z,2.65
2018-09-02T15:20:48.345Z,2.25
2018-09-02T15:23:15.707Z,3.50
2018-09-02T15:25:43.644Z,3.50
2018-09-02T15:28:11.440Z,3.80
2018-09-02T15:30:39.072Z,3.00
2018-09-02T15:33:06.418Z,4.50
2018-09-02T15:35:33.652Z,4.28
2018-09-02T15:52:43.274Z,3.20
2018-09-02T15:55:11.358Z,3.60
2018-09-02T17:28:25.792Z,5.30
2018-09-02T17:30:53.163Z,3.90
2018-09-02T17:33:21.074Z,3.95
2018-09-02T17:35:48.689Z,4.33
2018-09-02T17:38:17.039Z,4.10
2018-09-02T17:40:44.378Z,3.95
2018-09-02T17:43:12.483Z,4.10
2018-09-02T17:45:40.406Z,4.00
2018-09-02T17:48:08.042Z,4.10
2018-09-02T17:50:35.608Z,3.95
2018-09-02T17:53:02.916Z,4.45
2018-09-02T17:55:30.142Z,4.15
2018-09-02T17:57:57.401Z,4.70
2018-09-02T18:00:29.254Z,3.75
2018-09-02T18:02:57.487Z,4.55
2018-09-02T18:05:24.708Z,4.50
2018-09-02T18:07:52.258Z,4.30
2018-09-02T18:10:20.141Z,4.40
2018-09-02T18:12:47.736Z,4.50
2018-09-02T18:15:15.339Z,4.47
2018-09-02T18:17:43.468Z,4.60
2018-09-02T18:20:11.557Z,4.85
2018-09-02T18:22:39.023Z,5.33
2018-09-02T18:25:06.625Z,6.00
2018-09-02T18:27:36.460Z,5.50
2018-09-02T18:30:03.943Z,5.90
2018-09-02T18:35:05.843Z,4.80
2018-09-02T18:37:33.106Z,4.57
2018-09-02T18:40:00.310Z,4.87
2018-09-02T19:31:27.570Z,6.60
2018-09-02T19:33:54.904Z,7.15
2018-09-02T19:36:22.458Z,7.70
2018-09-02T19:38:50.344Z,8.45
2018-09-02T19:41:17.970Z,8.50
2018-09-02T19:43:46.412Z,8.60
2018-09-02T19:46:15.066Z,7.95
2018-09-02T19:48:43.043Z,8.10
2018-09-02T19:51:11.105Z,8.10
2018-09-02T19:53:38.409Z,8.10
2018-09-02T19:56:05.659Z,7.73
2018-09-02T19:58:33.725Z,7.45
2018-09-02T20:01:01.084Z,8.03
2018-09-02T20:03:28.392Z,8.93
2018-09-02T20:05:55.663Z,7.78
2018-09-02T20:08:23.048Z,7.10
2018-09-02T20:10:50.730Z,7.60
2018-09-02T20:13:18.574Z,7.50
2018-09-02T20:15:46.195Z,6.80
2018-09-02T20:18:14.261Z,7.03
2018-09-02T20:20:42.482Z,6.70
2018-09-02T20:23:09.740Z,7.78
2018-09-02T20:25:36.964Z,7.22
2018-09-02T20:28:04.210Z,6.80
2018-09-02T20:30:31.489Z,6.70
2018-09-02T20:32:58.834Z,6.60
2018-09-02T20:35:26.199Z,6.70
2018-09-02T20:37:54.036Z,6.60
2018-09-02T20:40:21.650Z,6.90
2018-09-02T20:42:48.988Z,7.00
2018-09-02T20:45:16.849Z,7.00
2018-09-02T20:47:45.486Z,6.80
2018-09-02T20:50:14.077Z,6.20
2018-09-02T20:52:42.325Z,6.70
2018-09-02T20:55:10.048Z,6.87
2018-09-02T20:57:37.629Z,6.73
2018-09-02T21:00:05.500Z,6.50
2018-09-02T21:02:33.036Z,7.00
2018-09-02T21:05:00.275Z,5.87
2018-09-02T21:07:27.524Z,6.22
2018-09-02T21:09:54.780Z,6.58
2018-09-02T21:12:22.340Z,6.10
2018-09-02T21:14:50.355Z,6.12
2018-09-02T21:17:18.309Z,5.87
2018-09-02T21:19:46.624Z,6.33
2018-09-02T21:22:14.779Z,6.10
2018-09-02T21:24:42.820Z,6.40
2018-09-02T21:27:10.146Z,6.35
2018-09-02T21:29:37.507Z,5.90
2018-09-02T21:32:05.015Z,5.90
2018-09-02T21:34:32.614Z,6.25
2018-09-02T21:36:59.864Z,5.75
2018-09-02T21:39:27.054Z,6.10
2018-09-02T21:41:54.304Z,5.73
2018-09-02T21:44:21.755Z,5.80
2018-09-02T21:46:49.241Z,5.70
2018-09-02T21:49:17.019Z,5.40
2018-09-02T21:51:45.335Z,5.15
2018-09-02T21:54:13.436Z,5.60
2018-09-02T21:56:41.228Z,5.30
2018-09-02T21:59:08.689Z,5.50
2018-09-02T22:01:35.921Z,5.50
2018-09-02T22:04:03.127Z,5.75
2018-09-02T22:06:30.633Z,5.37
2018-09-02T22:08:57.894Z,5.40
2018-09-02T22:11:25.136Z,5.15
2018-09-02T22:13:52.939Z,5.42
2018-09-02T22:16:20.236Z,5.20
2018-09-02T22:18:47.499Z,5.40
2018-09-02T22:21:15.361Z,5.22
2018-09-02T22:23:44.376Z,5.80
2018-09-02T22:26:12.135Z,5.22
2018-09-02T22:28:39.617Z,5.25
2018-09-02T22:31:07.304Z,5.80
2018-09-02T22:33:34.620Z,5.83
2018-09-02T22:36:01.871Z,5.50
2018-09-02T22:38:29.141Z,5.70
2018-09-02T22:40:56.395Z,5.40
2018-09-02T22:43:23.707Z,5.40
2018-09-02T22:45:51.312Z,5.33
2018-09-02T22:48:18.938Z,5.62
2018-09-02T22:50:47.017Z,5.30
2018-09-02T22:53:15.623Z,5.20
2018-09-02T22:55:44.123Z,5.25
2018-09-02T22:58:47.957Z,5.00
2018-09-02T23:01:15.994Z,5.67
2018-09-02T23:03:44.579Z,5.47
2018-09-02T23:06:14.266Z,5.30
2018-09-02T23:08:42.759Z,4.72
2018-09-02T23:11:10.571Z,5.22
2018-09-02T23:13:38.107Z,5.10
2018-09-02T23:16:05.481Z,4.85
2018-09-02T23:18:32.713Z,5.10
2018-09-02T23:20:59.973Z,5.20
2018-09-02T23:23:27.279Z,4.75
2018-09-02T23:25:54.815Z,5.10
2018-09-02T23:28:22.217Z,4.85
2018-09-02T23:30:49.738Z,5.10
2018-09-02T23:33:17.172Z,4.90
2018-09-02T23:35:44.809Z,5.20
2018-09-02T23:38:13.775Z,5.17
2018-09-02T23:40:41.734Z,5.47
2018-09-02T23:43:09.146Z,5.45
2018-09-02T23:45:36.667Z,5.30
2018-09-02T23:48:04.541Z,5.22
2018-09-02T23:50:31.849Z,5.60
2018-09-02T23:52:59.916Z,5.33
2018-09-02T23:55:27.103Z,5.50
2018-09-02T23:57:54.410Z,5.80
